Terminal Aerodrome Forecast
Issued by NWS Charleston, WV

Current Version | Previous Version | Graphics & Text | Print | Product List | Glossary On
Versions: 1 2 3 4 5 6 7 8 9 10 11 12 13 14 15 16 17 18 19 20 21 22 23 24 25
012
FTUS41 KRLX 200250 AAA
TAFBKW
TAF AMD
KBKW 200250Z 2003/2024 25004KT P6SM VCTS BKN060CB
      TEMPO 2003/2005 4SM SHRA BR BKN035
     FM200500 VRB03KT P6SM BKN110
     FM201600 26005KT P6SM SCT040
     FM201900 27004KT P6SM BKN050=

USA.gov is the U.S. government's official web portal to all federal, state and local government web resources and services.